Time;durP1;ratioP1;P1;durP2;ratioP2;P2;SDS_P1;SDS_P2;PMS_P1;PMS_P2;Temp;Humidity;BMP_temperature;BMP_pressure;BME280_temperature;BME280_humidity;BME280_pressure;Samples;Min_cycle;Max_cycle;Signal;HPM_P1;HPM_P2
2023/08/15 00:01:49;;;;;;;9.47;3.67;;;;;;;20.63;95.78;101024.38;4870453;29;20082;-94
2023/08/15 00:04:15;;;;;;;9.15;4.20;;;;;;;20.56;96.15;101016.38;4888046;29;20032;-94
2023/08/15 00:06:43;;;;;;;11.60;4.10;;;;;;;20.46;97.10;101017.22;4904558;29;20099;-94
2023/08/15 00:09:17;;;;;;;8.47;4.37;;;;;;;20.41;97.36;101002.63;4904593;29;20032;-94
2023/08/15 00:11:45;;;;;;;13.43;4.40;;;;;;;20.35;98.27;101003.75;4904678;29;20115;-94
2023/08/15 00:14:11;;;;;;;18.15;4.50;;;;;;;20.27;97.94;100996.84;4904424;29;20133;-94
2023/08/15 00:16:37;;;;;;;6.30;3.83;;;;;;;20.22;97.80;100986.66;4904372;29;20126;-94
2023/08/15 00:19:11;;;;;;;11.33;4.13;;;;;;;20.25;98.91;100996.31;4903264;29;20173;-93
2023/08/15 00:21:37;;;;;;;10.55;4.03;;;;;;;20.18;99.29;100993.00;4904713;29;20036;-93
2023/08/15 00:24:03;;;;;;;9.17;4.00;;;;;;;20.12;99.09;100993.03;4904297;29;20036;-93
2023/08/15 00:26:30;;;;;;;11.57;4.00;;;;;;;20.05;99.68;101000.72;4904348;29;20032;-93
2023/08/15 00:29:03;;;;;;;7.93;3.60;;;;;;;20.01;100.00;101013.41;4921071;29;20111;-93
2023/08/15 00:31:31;;;;;;;10.43;4.18;;;;;;;19.97;100.00;101017.78;4888519;29;20043;-92
2023/08/15 00:33:57;;;;;;;8.60;4.25;;;;;;;19.90;100.00;101019.97;4904143;29;20036;-94
2023/08/15 00:36:25;;;;;;;14.33;4.50;;;;;;;19.76;100.00;101016.91;4904210;29;20035;-93
2023/08/15 00:38:53;;;;;;;10.23;3.85;;;;;;;19.68;100.00;101018.28;4904245;29;20465;-93
2023/08/15 00:41:19;;;;;;;13.20;4.10;;;;;;;19.56;100.00;101020.44;4903989;29;20056;-94
2023/08/15 00:43:46;;;;;;;10.63;4.23;;;;;;;19.45;100.00;101020.41;4903862;29;20032;-93
2023/08/15 00:46:21;;;;;;;11.95;4.50;;;;;;;19.37;100.00;101028.38;4888246;29;20036;-93
2023/08/15 00:48:55;;;;;;;10.73;3.75;;;;;;;19.26;100.00;101033.03;4903832;29;20043;-93
2023/08/15 00:51:23;;;;;;;10.77;4.15;;;;;;;19.18;100.00;101041.81;4903701;29;20050;-94
2023/08/15 00:53:49;;;;;;;7.43;3.97;;;;;;;19.08;100.00;101043.41;4903757;29;20032;-93
2023/08/15 00:56:16;;;;;;;10.00;4.47;;;;;;;18.97;100.00;101043.59;4903500;29;20075;-92
2023/08/15 00:58:45;;;;;;;10.70;3.78;;;;;;;18.90;100.00;101036.44;4920240;29;20040;-93
2023/08/15 01:01:17;;;;;;;9.48;3.40;;;;;;;18.81;100.00;101034.41;4888044;29;20068;-93
2023/08/15 01:03:43;;;;;;;9.38;3.50;;;;;;;18.73;100.00;101031.09;4918934;29;20031;-93
2023/08/15 01:06:09;;;;;;;8.23;3.53;;;;;;;18.67;100.00;101028.56;4920295;29;20036;-93
2023/08/15 01:08:34;;;;;;;14.80;3.47;;;;;;;18.66;100.00;101026.91;4902720;29;20036;-93
2023/08/15 01:11:01;;;;;;;12.10;3.37;;;;;;;18.61;100.00;101022.22;4919839;29;20056;-93
2023/08/15 01:13:53;;;;;;;8.48;3.35;;;;;;;18.63;100.00;101027.44;4920267;29;20067;-93
2023/08/15 01:16:33;;;;;;;10.23;3.30;;;;;;;18.57;100.00;101024.69;4903610;29;20063;-93
2023/08/15 01:19:13;;;;;;;10.55;3.35;;;;;;;18.52;100.00;101021.88;4903285;29;20035;-94
2023/08/15 01:21:45;;;;;;;10.20;3.70;;;;;;;18.51;100.00;101030.38;4920160;29;20024;-93
2023/08/15 01:24:14;;;;;;;13.70;3.60;;;;;;;18.47;100.00;101018.25;4903090;29;20123;-93
2023/08/15 01:26:39;;;;;;;9.45;3.15;;;;;;;18.50;100.00;101021.31;4903025;29;20499;-93
2023/08/15 01:29:05;;;;;;;7.30;3.37;;;;;;;18.48;100.00;101026.25;4903297;29;20032;-93
2023/08/15 01:31:34;;;;;;;6.53;2.95;;;;;;;18.46;100.00;101019.38;4903190;29;20370;-93
2023/08/15 01:34:07;;;;;;;9.52;3.22;;;;;;;18.43;100.00;101036.38;4902689;29;20079;-93
2023/08/15 01:36:43;;;;;;;12.37;3.33;;;;;;;18.37;100.00;101047.31;4903453;29;20178;-93
2023/08/15 01:39:12;;;;;;;10.77;3.05;;;;;;;18.32;100.00;101061.03;4903174;29;20042;-93
2023/08/15 01:41:44;;;;;;;9.10;3.13;;;;;;;18.28;100.00;101051.66;4902409;29;20115;-92
2023/08/15 01:44:14;;;;;;;7.18;3.53;;;;;;;18.29;100.00;101057.97;4919546;29;20032;-93
2023/08/15 01:46:46;;;;;;;10.63;3.42;;;;;;;18.23;100.00;101062.59;4901890;29;20032;-93
2023/08/15 01:49:15;;;;;;;9.90;3.43;;;;;;;18.19;100.00;101073.28;4919638;29;20036;-93
2023/08/15 01:51:42;;;;;;;11.82;3.00;;;;;;;18.18;100.00;101079.03;4902114;29;20055;-92
2023/08/15 01:54:10;;;;;;;10.93;3.10;;;;;;;18.19;100.00;101073.28;4902603;29;20039;-93
2023/08/15 01:56:44;;;;;;;10.32;3.40;;;;;;;18.19;100.00;101080.69;4902138;29;20119;-93
2023/08/15 01:59:18;;;;;;;13.02;3.28;;;;;;;18.17;100.00;101082.84;4902962;29;20044;-93
2023/08/15 02:01:46;;;;;;;10.17;3.27;;;;;;;18.18;100.00;101087.25;4887465;29;20044;-92
2023/08/15 02:04:14;;;;;;;8.90;2.88;;;;;;;18.16;100.00;101083.94;4902828;29;20116;-93
2023/08/15 02:06:39;;;;;;;8.55;3.55;;;;;;;18.14;100.00;101084.19;4886956;29;20122;-93
2023/08/15 02:09:05;;;;;;;12.33;3.33;;;;;;;18.13;100.00;101087.19;4902178;29;20071;-93
2023/08/15 02:11:34;;;;;;;12.20;3.33;;;;;;;18.11;100.00;101090.22;4902114;29;20036;-93
2023/08/15 02:13:59;;;;;;;10.68;3.53;;;;;;;18.09;100.00;101097.88;4918736;29;20028;-93
2023/08/15 02:16:25;;;;;;;13.30;3.40;;;;;;;18.08;100.00;101098.97;4917725;29;20035;-93
2023/08/15 02:18:50;;;;;;;9.97;3.73;;;;;;;18.09;100.00;101105.31;4902457;29;20048;-93
2023/08/15 02:21:16;;;;;;;11.77;3.38;;;;;;;18.03;100.00;101120.91;4901676;29;20024;-93
2023/08/15 02:23:41;;;;;;;9.53;3.40;;;;;;;18.03;100.00;101116.22;4902445;29;20079;-93
2023/08/15 02:26:17;;;;;;;7.97;3.13;;;;;;;18.00;100.00;101118.69;4901497;29;20477;-93
2023/08/15 02:28:54;;;;;;;10.60;2.90;;;;;;;17.94;100.00;101115.03;4901711;29;20036;-92
2023/08/15 02:31:29;;;;;;;9.57;3.45;;;;;;;17.84;100.00;101117.63;4887346;29;20033;-93
2023/08/15 02:34:14;;;;;;;7.90;3.25;;;;;;;17.78;100.00;101126.91;4902180;29;20092;-93
2023/08/15 02:36:49;;;;;;;10.00;3.90;;;;;;;17.74;100.00;101134.00;4901628;29;20039;-94
2023/08/15 02:39:21;;;;;;;11.15;3.10;;;;;;;17.65;100.00;101119.88;4901532;29;20072;-93
2023/08/15 02:41:49;;;;;;;9.63;3.53;;;;;;;17.58;100.00;101116.50;4902039;29;20028;-93
2023/08/15 02:44:17;;;;;;;12.60;3.63;;;;;;;17.50;100.00;101109.56;4901322;29;20392;-93
2023/08/15 02:46:47;;;;;;;11.80;3.08;;;;;;;17.48;100.00;101098.00;4901215;29;20036;-93
2023/08/15 02:49:13;;;;;;;8.63;3.50;;;;;;;17.46;100.00;101103.75;4901835;29;20056;-93
2023/08/15 02:51:48;;;;;;;13.13;3.10;;;;;;;17.44;100.00;101105.09;4901499;29;20551;-93
2023/08/15 02:54:16;;;;;;;9.20;3.67;;;;;;;17.45;100.00;101113.06;4901654;29;20112;-93
2023/08/15 02:56:42;;;;;;;9.33;3.60;;;;;;;17.39;100.00;101114.09;4901122;29;20060;-93
2023/08/15 02:59:07;;;;;;;10.32;3.33;;;;;;;17.38;100.00;101111.59;4901632;29;20026;-93
2023/08/15 03:01:33;;;;;;;8.50;3.10;;;;;;;17.37;100.00;101108.03;4886543;29;20127;-92
2023/08/15 03:03:59;;;;;;;9.65;4.00;;;;;;;17.32;100.00;101108.78;4900937;29;20076;-92
2023/08/15 03:06:24;;;;;;;11.10;3.93;;;;;;;17.29;100.00;101116.72;4901482;29;20032;-93
2023/08/15 03:08:50;;;;;;;12.13;3.40;;;;;;;17.29;100.00;101124.94;4901194;29;20083;-93
2023/08/15 03:11:33;;;;;;;10.77;3.90;;;;;;;17.25;100.00;101118.28;4886299;29;20284;-93
2023/08/15 03:14:01;;;;;;;10.98;3.72;;;;;;;17.17;100.00;101103.94;4917243;29;20043;-93
2023/08/15 03:16:34;;;;;;;15.13;3.67;;;;;;;17.14;100.00;101106.34;4901116;29;20032;-93
2023/08/15 03:19:03;;;;;;;11.55;3.83;;;;;;;17.09;100.00;101111.75;4886173;29;20038;-93
2023/08/15 03:21:30;;;;;;;13.57;4.15;;;;;;;17.05;100.00;101116.09;4900652;29;20078;-92
2023/08/15 03:23:57;;;;;;;13.52;4.30;;;;;;;17.03;100.00;101113.59;4885792;29;20116;-93
2023/08/15 03:26:25;;;;;;;14.20;3.90;;;;;;;16.95;100.00;101103.09;4901173;29;20484;-93
2023/08/15 03:28:54;;;;;;;13.93;3.77;;;;;;;16.92;100.00;101111.78;4901223;29;20385;-93
2023/08/15 03:31:21;;;;;;;8.07;3.50;;;;;;;16.88;100.00;101095.03;4885688;29;20024;-93
2023/08/15 03:33:49;;;;;;;15.15;3.80;;;;;;;16.87;100.00;101107.06;4901492;29;20044;-93
2023/08/15 03:36:17;;;;;;;10.48;3.58;;;;;;;16.82;100.00;101105.03;4901742;29;20024;-92
2023/08/15 03:38:53;;;;;;;;;;;;;;;;;;;;;
2023/08/15 03:41:21;;;;;;;9.17;3.90;;;;;;;16.75;100.00;101114.53;4921556;29;20042;-93
2023/08/15 03:43:46;;;;;;;14.57;4.18;;;;;;;16.73;100.00;101123.00;4904924;29;20473;-92
2023/08/15 03:46:19;;;;;;;13.52;4.25;;;;;;;16.69;100.00;101118.28;4920008;29;20032;-92
2023/08/15 03:48:47;;;;;;;11.70;4.20;;;;;;;16.63;100.00;101123.66;4904725;29;20032;-92
2023/08/15 03:51:15;;;;;;;12.25;3.97;;;;;;;16.62;100.00;101132.97;4904320;29;20032;-92
2023/08/15 03:53:43;;;;;;;10.05;4.03;;;;;;;16.58;100.00;101134.53;4889196;29;20047;-92
2023/08/15 03:56:11;;;;;;;19.05;4.38;;;;;;;16.54;100.00;101138.03;4904015;29;20095;-92
2023/08/15 03:58:39;;;;;;;12.93;4.25;;;;;;;16.51;100.00;101139.34;4889262;29;20124;-92
2023/08/15 04:01:05;;;;;;;7.93;4.00;;;;;;;16.43;100.00;101135.13;4904451;29;20087;-92
2023/08/15 04:03:33;;;;;;;13.25;4.65;;;;;;;16.42;100.00;101144.41;4904543;29;20032;-93
2023/08/15 04:06:04;;;;;;;14.85;4.40;;;;;;;16.40;100.00;101132.88;4904467;29;20051;-92
2023/08/15 04:08:32;;;;;;;10.85;4.53;;;;;;;16.39;100.00;101135.84;4921601;29;20032;-93
2023/08/15 04:11:00;;;;;;;8.57;4.60;;;;;;;16.37;100.00;101140.72;4904774;29;20032;-93
2023/08/15 04:13:25;;;;;;;12.03;4.93;;;;;;;16.32;100.00;101141.47;4904803;29;20059;-93
2023/08/15 04:15:53;;;;;;;13.32;4.47;;;;;;;16.28;100.00;101132.94;4904144;29;20031;-93
2023/08/15 04:18:19;;;;;;;11.57;4.80;;;;;;;16.22;100.00;101120.22;4904210;29;20080;-93
2023/08/15 04:20:45;;;;;;;13.93;5.18;;;;;;;16.20;100.00;101125.13;4904225;29;20433;-92
2023/08/15 04:23:13;;;;;;;14.70;4.60;;;;;;;16.15;100.00;101127.78;4921213;29;20028;-93
2023/08/15 04:25:41;;;;;;;12.77;4.53;;;;;;;16.11;100.00;101115.66;4921581;29;20032;-92
2023/08/15 04:28:08;;;;;;;12.90;4.82;;;;;;;16.09;100.00;101123.25;4939683;29;20027;-92
2023/08/15 04:30:34;;;;;;;18.48;5.55;;;;;;;16.07;100.00;101139.09;4922770;29;20086;-92
2023/08/15 04:33:00;;;;;;;12.00;4.72;;;;;;;16.07;100.00;101128.16;4922663;29;20468;-92
2023/08/15 04:35:32;;;;;;;13.97;4.77;;;;;;;16.07;100.00;101133.63;4938619;29;20473;-92
2023/08/15 04:38:00;;;;;;;16.17;4.97;;;;;;;16.10;100.00;101146.81;4904674;29;20047;-93
2023/08/15 04:40:39;;;;;;;12.63;5.28;;;;;;;16.10;100.00;101141.34;4906768;29;20031;-93
2023/08/15 04:43:05;;;;;;;12.13;5.07;;;;;;;16.05;100.00;101153.03;4939761;29;20060;-93
2023/08/15 04:45:31;;;;;;;14.27;5.30;;;;;;;16.05;100.00;101153.03;4922633;29;20058;-93
2023/08/15 04:47:59;;;;;;;13.43;5.20;;;;;;;16.05;100.00;101154.97;4922152;29;20040;-93
2023/08/15 04:50:25;;;;;;;16.50;5.00;;;;;;;16.03;100.00;101155.19;4922114;29;20122;-93
2023/08/15 04:52:50;;;;;;;14.05;5.35;;;;;;;16.04;100.00;101156.84;4938370;29;20082;-93
2023/08/15 04:55:16;;;;;;;13.67;5.10;;;;;;;16.09;100.00;101158.84;4939692;29;20062;-93
2023/08/15 04:57:42;;;;;;;14.63;5.00;;;;;;;16.16;100.00;101175.94;4922453;29;20062;-93
2023/08/15 05:00:08;;;;;;;13.50;5.32;;;;;;;16.22;100.00;101185.09;4939144;29;20040;-93
2023/08/15 05:02:40;;;;;;;11.75;4.25;;;;;;;16.25;100.00;101179.94;4922359;29;20046;-93
2023/08/15 05:05:06;;;;;;;10.87;4.40;;;;;;;16.29;100.00;101196.72;4923013;29;20101;-93
2023/08/15 05:07:33;;;;;;;11.15;4.57;;;;;;;16.29;100.00;101197.56;4922184;29;20036;-92
2023/08/15 05:10:03;;;;;;;12.88;4.93;;;;;;;16.29;100.00;101196.72;4922242;29;20226;-92
2023/08/15 05:12:32;;;;;;;11.48;4.38;;;;;;;16.33;100.00;101208.00;4937770;29;20047;-92
2023/08/15 05:15:00;;;;;;;12.13;4.55;;;;;;;16.31;100.00;101214.59;4938813;29;20036;-93
2023/08/15 05:17:35;;;;;;;10.57;4.43;;;;;;;16.32;100.00;101215.41;4921755;29;20110;-93
2023/08/15 05:20:00;;;;;;;13.75;4.68;;;;;;;16.30;100.00;101215.66;4937958;29;20082;-92
2023/08/15 05:22:28;;;;;;;14.68;5.30;;;;;;;16.35;100.00;101228.59;4921323;29;20027;-91
2023/08/15 05:24:54;;;;;;;11.15;4.78;;;;;;;16.41;100.00;101235.00;4936801;29;20046;-89
2023/08/15 05:27:19;;;;;;;8.57;4.50;;;;;;;16.41;100.00;101235.00;4921930;29;20035;-88
2023/08/15 05:29:44;;;;;;;14.27;4.80;;;;;;;16.44;100.00;101229.03;4905603;29;20387;-89
2023/08/15 05:32:10;;;;;;;14.37;4.90;;;;;;;16.49;100.00;101229.16;4905510;29;20035;-89
2023/08/15 05:34:36;;;;;;;15.98;5.30;;;;;;;16.54;100.00;101231.16;4921113;29;20024;-88
2023/08/15 05:37:01;;;;;;;15.03;4.80;;;;;;;16.61;100.00;101234.56;4905293;29;20035;-87
2023/08/15 05:39:27;;;;;;;11.80;5.37;;;;;;;16.67;100.00;101237.13;4937056;29;20067;-88
2023/08/15 05:41:52;;;;;;;15.03;5.00;;;;;;;16.72;100.00;101221.88;4920426;29;20114;-87
2023/08/15 05:44:18;;;;;;;15.87;5.00;;;;;;;16.78;100.00;101231.84;4920809;29;20422;-87
2023/08/15 05:46:43;;;;;;;12.40;5.10;;;;;;;16.83;100.00;101216.31;4937477;29;20476;-88
2023/08/15 05:49:11;;;;;;;14.50;5.33;;;;;;;16.90;100.00;101226.31;4920255;29;20032;-87
2023/08/15 05:51:37;;;;;;;9.07;5.43;;;;;;;16.95;100.00;101229.16;4920649;29;20028;-88
2023/08/15 05:54:02;;;;;;;14.47;5.17;;;;;;;17.04;100.00;101243.25;4904854;29;20075;-89
2023/08/15 05:56:28;;;;;;;15.35;5.43;;;;;;;17.08;100.00;101252.66;4920518;29;20114;-90
2023/08/15 05:58:53;;;;;;;12.53;5.70;;;;;;;17.12;100.00;101254.63;4937627;29;20487;-89
2023/08/15 06:01:21;;;;;;;12.90;5.83;;;;;;;17.10;100.00;101250.50;4919639;29;20035;-90
2023/08/15 06:03:46;;;;;;;18.10;5.55;;;;;;;17.12;100.00;101257.38;4921000;29;20508;-89
2023/08/15 06:06:14;;;;;;;17.20;6.20;;;;;;;17.20;100.00;101258.91;4921353;29;20067;-88
2023/08/15 06:08:40;;;;;;;13.07;5.43;;;;;;;17.25;100.00;101252.66;4920487;29;20043;-88
2023/08/15 06:11:05;;;;;;;14.67;5.30;;;;;;;17.30;100.00;101252.72;4935924;29;20024;-88
2023/08/15 06:13:31;;;;;;;15.55;5.68;;;;;;;17.42;100.00;101263.59;4936904;29;20034;-87
2023/08/15 06:15:59;;;;;;;11.43;5.60;;;;;;;17.47;100.00;101278.22;4919950;29;20126;-87
2023/08/15 06:18:24;;;;;;;12.77;6.00;;;;;;;17.54;100.00;101278.06;4919901;29;20047;-87
2023/08/15 06:20:52;;;;;;;15.03;5.83;;;;;;;17.62;100.00;101285.84;4920139;29;20028;-87
2023/08/15 06:23:17;;;;;;;18.58;6.65;;;;;;;17.69;100.00;101283.75;4904743;29;20469;-87
2023/08/15 06:25:43;;;;;;;15.00;6.40;;;;;;;17.75;100.00;101281.91;4919999;29;20036;-87
2023/08/15 06:28:08;;;;;;;15.57;6.43;;;;;;;17.83;100.00;101277.91;4920068;29;20118;-87
2023/08/15 06:30:34;;;;;;;16.50;6.90;;;;;;;17.88;100.00;101289.78;4888401;29;20098;-86
2023/08/15 06:32:59;;;;;;;18.70;6.60;;;;;;;17.92;100.00;101284.63;4936883;29;20035;-87
2023/08/15 06:35:28;;;;;;;13.70;5.82;;;;;;;18.02;100.00;101281.22;4937113;29;20043;-86
2023/08/15 06:37:56;;;;;;;16.80;6.40;;;;;;;18.09;100.00;101284.59;4920445;29;20067;-87
2023/08/15 06:40:22;;;;;;;17.73;7.25;;;;;;;18.18;100.00;101287.72;4919750;29;20131;-87
2023/08/15 06:42:47;;;;;;;15.27;6.13;;;;;;;18.27;100.00;101285.38;4920544;29;20059;-87
2023/08/15 06:45:19;;;;;;;19.97;6.57;;;;;;;18.33;100.00;101285.16;4936835;29;20035;-88
2023/08/15 06:47:50;;;;;;;12.45;6.78;;;;;;;18.39;100.00;101283.28;4919303;29;20130;-87
2023/08/15 06:50:18;;;;;;;17.40;6.40;;;;;;;18.42;100.00;101299.25;4904709;29;20034;-88
2023/08/15 06:52:44;;;;;;;15.05;5.90;;;;;;;18.52;100.00;101298.56;4937066;29;20481;-87
2023/08/15 06:55:09;;;;;;;13.23;5.53;;;;;;;18.59;100.00;101291.75;4936557;29;20055;-87
2023/08/15 06:57:35;;;;;;;13.35;5.35;;;;;;;18.64;100.00;101298.41;4919485;29;20048;-87
2023/08/15 07:00:02;;;;;;;16.93;5.93;;;;;;;18.69;100.00;101287.47;4920035;29;20424;-92
2023/08/15 07:02:31;;;;;;;15.50;5.18;;;;;;;18.78;100.00;101291.41;4935309;29;20043;-92
2023/08/15 07:04:56;;;;;;;14.98;5.35;;;;;;;18.87;100.00;101289.88;4936539;29;20540;-92
2023/08/15 07:07:26;;;;;;;15.60;5.40;;;;;;;18.99;100.00;101297.97;4935945;29;20059;-92
2023/08/15 07:09:52;;;;;;;19.33;5.50;;;;;;;19.03;100.00;101303.75;4905120;29;20040;-92
2023/08/15 07:12:25;;;;;;;12.40;4.93;;;;;;;19.09;100.00;101297.25;4936659;28;20034;-92
2023/08/15 07:14:50;;;;;;;13.05;5.05;;;;;;;19.14;100.00;101294.50;4920030;29;20039;-92
2023/08/15 07:17:19;;;;;;;12.23;4.87;;;;;;;19.17;100.00;101296.75;4936436;29;20140;-93
2023/08/15 07:19:47;;;;;;;11.85;4.60;;;;;;;19.23;100.00;101303.94;4920192;29;20040;-92
2023/08/15 07:22:13;;;;;;;8.75;4.53;;;;;;;19.41;100.00;101307.38;4919514;29;20046;-92
2023/08/15 07:24:38;;;;;;;14.52;4.85;;;;;;;19.50;100.00;101307.72;4919936;29;20373;-92
2023/08/15 07:27:11;;;;;;;10.87;4.40;;;;;;;19.66;100.00;101317.72;4919346;29;20043;-93
2023/08/15 07:29:37;;;;;;;15.43;4.32;;;;;;;19.82;100.00;101318.69;4936843;29;20039;-92
2023/08/15 07:32:02;;;;;;;15.73;4.30;;;;;;;19.96;100.00;101313.53;4920444;29;20128;-93
2023/08/15 07:34:31;;;;;;;14.95;4.75;;;;;;;20.01;100.00;101318.25;4936017;29;20403;-92
2023/08/15 07:36:58;;;;;;;14.85;4.18;;;;;;;20.13;100.00;101325.19;4905115;29;20040;-92
2023/08/15 07:39:24;;;;;;;11.47;3.60;;;;;;;20.17;100.00;101325.50;4920175;29;20040;-92
2023/08/15 07:41:49;;;;;;;16.45;4.22;;;;;;;20.16;100.00;101341.19;4935365;29;20488;-92
2023/08/15 07:44:15;;;;;;;11.70;3.30;;;;;;;20.18;100.00;101327.13;4919598;29;20039;-92
2023/08/15 07:46:41;;;;;;;14.07;4.00;;;;;;;20.19;100.00;101325.22;4936358;29;20031;-92
2023/08/15 07:49:06;;;;;;;10.67;3.60;;;;;;;20.22;100.00;101328.25;4920311;29;20692;-92
2023/08/15 07:51:34;;;;;;;9.03;3.20;;;;;;;20.22;100.00;101325.50;4919497;29;20411;-92
2023/08/15 07:54:05;;;;;;;12.02;3.80;;;;;;;20.27;100.00;101324.69;4936484;29;20104;-92
2023/08/15 07:56:48;;;;;;;;;;;;;;;;;;;;;
2023/08/15 07:59:13;;;;;;;9.02;3.35;;;;;;;20.37;100.00;101337.69;4930359;29;20048;-92
2023/08/15 08:01:41;;;;;;;9.97;3.40;;;;;;;20.47;100.00;101324.78;4919195;29;20103;-92
2023/08/15 08:04:09;;;;;;;15.50;3.78;;;;;;;20.66;100.00;101333.41;4903929;29;20413;-92
2023/08/15 08:06:37;;;;;;;8.75;3.20;;;;;;;20.75;99.57;101332.91;4919286;29;20047;-92
2023/08/15 08:09:05;;;;;;;8.70;3.33;;;;;;;20.83;99.34;101335.94;4904048;29;20028;-92
2023/08/15 08:11:31;;;;;;;11.77;3.35;;;;;;;20.90;98.18;101340.38;4919769;29;20485;-92
2023/08/15 08:13:56;;;;;;;9.43;2.92;;;;;;;21.01;96.68;101333.78;4935417;29;20051;-92
2023/08/15 08:16:22;;;;;;;8.07;2.93;;;;;;;21.01;96.49;101344.81;4903271;29;20038;-92
2023/08/15 08:18:47;;;;;;;10.33;3.60;;;;;;;20.97;96.23;101327.97;4936410;29;20086;-93
2023/08/15 08:21:15;;;;;;;13.30;3.70;;;;;;;21.09;96.28;101335.97;4935433;29;20027;-93
2023/08/15 08:23:43;;;;;;;9.67;3.60;;;;;;;21.08;94.88;101339.00;4919548;29;20122;-92
2023/08/15 08:26:09;;;;;;;10.98;3.25;;;;;;;21.10;96.76;101342.34;4907645;29;20608;-93
2023/08/15 08:28:35;;;;;;;13.75;3.42;;;;;;;21.09;95.21;101340.66;4924199;29;20114;-92
2023/08/15 08:31:02;;;;;;;8.70;3.87;;;;;;;21.10;96.03;101343.16;4938508;29;20030;-93
2023/08/15 08:33:28;;;;;;;13.48;3.40;;;;;;;21.13;95.67;101342.59;4922928;29;20388;-92
2023/08/15 08:35:54;;;;;;;8.20;2.92;;;;;;;21.22;95.65;101342.88;4938957;29;20032;-93
2023/08/15 08:38:19;;;;;;;14.27;3.47;;;;;;;21.25;94.53;101341.50;4922952;29;20038;-92
2023/08/15 08:40:48;;;;;;;10.00;2.70;;;;;;;21.29;94.98;101337.94;4922154;29;20055;-92
2023/08/15 08:43:20;;;;;;;9.43;3.40;;;;;;;21.31;94.30;101341.22;4922620;29;20279;-93
2023/08/15 08:45:53;;;;;;;12.65;3.28;;;;;;;21.29;93.61;101340.69;4939728;29;20091;-93
2023/08/15 08:48:21;;;;;;;13.70;3.58;;;;;;;21.35;93.97;101345.09;4922136;29;20110;-93
2023/08/15 08:50:48;;;;;;;9.15;3.17;;;;;;;21.51;91.96;101342.34;4938293;29;20038;-93
2023/08/15 08:53:13;;;;;;;11.68;2.95;;;;;;;21.67;91.48;101346.78;4906557;29;20038;-93
2023/08/15 08:55:46;;;;;;;9.67;3.03;;;;;;;21.93;90.52;101352.25;4939553;29;20024;-93
2023/08/15 08:58:13;;;;;;;7.82;2.67;;;;;;;22.11;89.66;101344.47;4922321;29;20056;-92
2023/08/15 09:00:43;;;;;;;10.13;2.63;;;;;;;22.25;88.52;101351.06;4939081;29;20067;-93
2023/08/15 09:03:15;;;;;;;9.52;3.47;;;;;;;22.54;87.57;101355.91;4922445;29;20024;-93
2023/08/15 09:05:41;;;;;;;7.75;3.10;;;;;;;22.66;86.66;101358.34;4922486;29;20037;-92
2023/08/15 09:08:09;;;;;;;11.48;3.00;;;;;;;22.62;86.37;101357.25;4939015;29;20111;-92
2023/08/15 09:10:35;;;;;;;13.85;4.22;;;;;;;22.68;87.01;101361.66;4921985;29;20122;-92
2023/08/15 09:13:03;;;;;;;8.63;3.33;;;;;;;22.71;86.31;101348.09;4939278;29;20073;-93
2023/08/15 09:15:35;;;;;;;10.65;3.15;;;;;;;22.88;85.72;101357.94;4921916;29;20126;-93
2023/08/15 09:18:04;;;;;;;7.47;2.83;;;;;;;22.96;84.42;101360.13;4921247;29;20071;-93
2023/08/15 09:20:30;;;;;;;10.67;2.87;;;;;;;23.07;84.38;101364.44;4922148;29;20130;-92
2023/08/15 09:22:57;;;;;;;11.90;2.90;;;;;;;23.02;82.04;101360.91;4921531;29;20126;-93
2023/08/15 09:25:25;;;;;;;7.22;2.55;;;;;;;22.94;83.46;101365.09;4938958;29;20042;-93
2023/08/15 09:27:54;;;;;;;10.10;2.80;;;;;;;22.81;82.33;101372.09;4922324;29;20387;-92
2023/08/15 09:30:22;;;;;;;8.32;2.75;;;;;;;22.78;82.45;101376.25;4922231;29;20094;-93
2023/08/15 09:32:48;;;;;;;10.85;3.65;;;;;;;22.77;81.77;101371.84;4921976;29;20477;-92
2023/08/15 09:35:18;;;;;;;6.88;2.80;;;;;;;22.89;81.68;101379.78;4921666;29;20032;-92
2023/08/15 09:37:53;;;;;;;9.10;2.50;;;;;;;22.99;80.83;101372.53;4906301;29;20126;-93
2023/08/15 09:40:33;;;;;;;10.13;3.10;;;;;;;23.11;82.10;101373.88;4906265;29;20052;-93
2023/08/15 09:42:58;;;;;;;9.15;2.83;;;;;;;23.16;80.76;101375.75;4921833;29;20118;-92
2023/08/15 09:45:24;;;;;;;9.03;2.50;;;;;;;23.42;79.77;101373.63;4921648;29;20114;-93
2023/08/15 09:47:55;;;;;;;12.23;2.90;;;;;;;23.46;79.99;101380.25;4920798;29;20099;-93
2023/08/15 09:50:24;;;;;;;9.07;2.90;;;;;;;23.59;78.31;101383.47;4921736;29;20055;-92
2023/08/15 09:52:52;;;;;;;7.30;2.60;;;;;;;23.64;78.42;101383.44;4921561;29;20032;-93
2023/08/15 09:55:18;;;;;;;9.52;3.00;;;;;;;23.59;77.08;101380.69;4938370;29;20102;-93
2023/08/15 09:57:50;;;;;;;8.00;2.57;;;;;;;23.57;77.71;101392.06;4938339;29;20143;-92
2023/08/15 10:00:18;;;;;;;12.88;2.67;;;;;;;23.68;76.07;101391.97;4921806;29;20548;-92
2023/08/15 10:03:06;;;;;;;7.40;2.40;;;;;;;23.70;77.08;101395.28;4937958;29;20060;-93
2023/08/15 10:05:40;;;;;;;7.30;2.50;;;;;;;23.76;76.13;101405.19;4921217;29;20090;-93
2023/08/15 10:08:08;;;;;;;10.13;2.90;;;;;;;23.63;75.88;101409.47;4921164;29;20452;-93
2023/08/15 10:10:38;;;;;;;9.23;2.72;;;;;;;23.56;75.86;101412.59;4921258;29;20031;-93
2023/08/15 10:13:06;;;;;;;7.95;2.50;;;;;;;23.55;76.91;101404.53;4921172;29;20051;-93
2023/08/15 10:15:34;;;;;;;8.30;2.70;;;;;;;23.51;76.40;101411.78;4921392;29;20028;-93
2023/08/15 10:18:00;;;;;;;7.60;2.70;;;;;;;23.32;77.60;101409.69;4920519;29;20105;-93
2023/08/15 10:20:29;;;;;;;7.13;2.67;;;;;;;23.31;77.28;101410.81;4920857;29;20039;-93
2023/08/15 10:22:58;;;;;;;9.68;3.10;;;;;;;23.45;77.50;101405.47;4921009;29;20024;-93
2023/08/15 10:25:26;;;;;;;8.50;2.35;;;;;;;23.83;77.03;101414.00;4921167;29;20028;-93
2023/08/15 10:27:53;;;;;;;7.93;2.50;;;;;;;24.21;73.75;101405.03;4920878;29;20043;-92
2023/08/15 10:30:36;;;;;;;8.03;2.43;;;;;;;24.42;75.29;101413.94;4920666;29;20043;-93
2023/08/15 10:33:19;;;;;;;8.70;2.22;;;;;;;24.34;74.22;101415.44;4920861;29;20024;-93
2023/08/15 10:36:04;;;;;;;6.20;2.45;;;;;;;24.31;73.44;101419.63;4920548;29;20507;-92
2023/08/15 10:38:35;;;;;;;7.15;2.20;;;;;;;24.41;72.89;101424.22;4921480;29;20387;-93
2023/08/15 10:41:27;;;;;;;13.38;2.30;;;;;;;24.56;71.12;101420.44;4920807;29;20122;-93
2023/08/15 10:44:04;;;;;;;17.03;2.07;;;;;;;25.09;69.21;101421.44;4932035;29;20044;-93
2023/08/15 10:46:37;;;;;;;6.00;2.15;;;;;;;25.84;67.86;101420.53;4920361;29;20027;-93
2023/08/15 10:49:07;;;;;;;9.95;2.33;;;;;;;26.48;65.42;101416.31;4922750;29;20044;-93
2023/08/15 10:51:40;;;;;;;6.35;2.03;;;;;;;26.84;62.95;101418.34;4919885;29;20129;-93
2023/08/15 10:54:12;;;;;;;7.72;2.33;;;;;;;27.16;60.61;101410.94;4920476;29;20061;-92
2023/08/15 10:56:47;;;;;;;8.03;2.60;;;;;;;27.30;59.40;101417.28;4919941;29;20063;-93
2023/08/15 10:59:20;;;;;;;8.52;2.47;;;;;;;27.31;59.52;101408.63;4920334;29;20078;-93
2023/08/15 11:01:48;;;;;;;7.22;2.35;;;;;;;27.50;59.10;101410.41;4920335;29;20032;-93
2023/08/15 11:04:27;;;;;;;7.10;2.28;;;;;;;27.63;57.78;101409.50;4920567;29;20473;-93
2023/08/15 11:06:52;;;;;;;6.57;2.40;;;;;;;27.61;57.62;101409.03;4917848;29;20040;-93
2023/08/15 11:09:29;;;;;;;9.50;2.10;;;;;;;27.61;57.52;101408.22;4936894;29;20060;-95
2023/08/15 11:12:13;;;;;;;7.05;2.15;;;;;;;27.53;58.14;101409.78;4919943;29;20091;-93
2023/08/15 11:14:38;;;;;;;7.25;2.42;;;;;;;27.62;56.63;101398.69;4920347;29;20087;-94
2023/08/15 11:17:07;;;;;;;7.00;2.30;;;;;;;27.55;55.76;101410.28;4919883;29;20036;-94
2023/08/15 11:19:35;;;;;;;6.68;2.50;;;;;;;28.09;54.91;101407.50;4920200;29;20118;-94
2023/08/15 11:22:03;;;;;;;5.55;2.55;;;;;;;29.42;51.56;101413.03;4936221;29;20023;-94
2023/08/15 11:24:32;;;;;;;7.70;2.50;;;;;;;30.74;48.47;101408.63;4920166;29;20079;-94